createdAt,value
2018-04-27T00:01:53.167Z,5.40
2018-04-27T00:04:20.683Z,5.53
2018-04-27T00:06:48.169Z,4.50
2018-04-27T00:09:15.680Z,5.33
2018-04-27T00:11:43.232Z,6.30
2018-04-27T00:14:10.711Z,4.60
2018-04-27T00:16:38.198Z,5.43
2018-04-27T00:19:05.711Z,5.30
2018-04-27T00:21:33.251Z,6.80
2018-04-27T00:24:00.774Z,5.50
2018-04-27T00:26:28.274Z,5.33
2018-04-27T00:28:55.784Z,4.47
2018-04-27T00:31:23.374Z,5.50
2018-04-27T00:33:50.878Z,5.90
2018-04-27T00:36:18.378Z,4.90
2018-04-27T00:38:45.848Z,5.90
2018-04-27T00:41:13.407Z,5.33
2018-04-27T00:43:40.893Z,5.07
2018-04-27T00:46:08.474Z,5.30
2018-04-27T00:48:35.953Z,5.20
2018-04-27T00:51:03.866Z,5.30
2018-04-27T00:53:31.321Z,5.50
2018-04-27T00:55:58.804Z,5.30
2018-04-27T00:58:26.254Z,4.63
2018-04-27T01:00:53.710Z,4.97
2018-04-27T01:03:21.193Z,5.37
2018-04-27T01:05:48.648Z,5.37
2018-04-27T01:08:16.130Z,5.33
2018-04-27T01:10:43.663Z,5.30
2018-04-27T01:13:11.226Z,5.50
2018-04-27T01:15:38.680Z,4.70
2018-04-27T01:18:06.570Z,4.70
2018-04-27T01:20:34.035Z,5.20
2018-04-27T01:23:01.491Z,4.73
2018-04-27T01:25:28.958Z,5.73
2018-04-27T01:27:56.406Z,5.00
2018-04-27T01:30:23.865Z,4.73
2018-04-27T01:32:51.352Z,5.10
2018-04-27T01:35:18.812Z,5.53
2018-04-27T01:37:46.287Z,6.07
2018-04-27T01:40:13.742Z,5.97
2018-04-27T01:42:41.212Z,5.80
2018-04-27T01:45:09.354Z,5.70
2018-04-27T01:47:36.798Z,5.57
2018-04-27T01:50:04.269Z,5.70
2018-04-27T01:52:31.702Z,5.17
2018-04-27T01:54:59.157Z,5.70
2018-04-27T01:57:26.607Z,6.13
2018-04-27T01:59:54.069Z,5.87
2018-04-27T02:02:21.509Z,5.23
2018-04-27T02:04:48.951Z,5.60
2018-04-27T02:07:16.407Z,5.30
2018-04-27T02:09:43.854Z,6.30
2018-04-27T02:12:11.335Z,6.80
2018-04-27T02:14:38.795Z,6.57
2018-04-27T02:17:06.237Z,6.00
2018-04-27T02:19:33.689Z,6.10
2018-04-27T02:22:01.150Z,6.33
2018-04-27T02:24:28.604Z,6.80
2018-04-27T02:26:56.079Z,6.67
2018-04-27T02:29:23.513Z,6.40
2018-04-27T02:31:50.954Z,5.87
2018-04-27T02:34:18.424Z,5.80
2018-04-27T02:36:45.872Z,7.40
2018-04-27T02:39:13.308Z,5.57
2018-04-27T02:41:40.766Z,5.73
2018-04-27T02:44:08.619Z,5.90
2018-04-27T02:46:36.069Z,6.00
2018-04-27T02:49:03.535Z,5.93
2018-04-27T02:51:30.993Z,5.87
2018-04-27T02:53:58.458Z,6.50
2018-04-27T02:56:25.906Z,5.97
2018-04-27T02:58:53.412Z,5.97
2018-04-27T03:01:20.860Z,5.77
2018-04-27T03:03:49.737Z,5.70
2018-04-27T03:06:17.203Z,5.83
2018-04-27T03:08:44.653Z,6.13
2018-04-27T03:11:12.117Z,6.57
2018-04-27T03:13:39.577Z,6.40
2018-04-27T03:16:07.032Z,6.60
2018-04-27T03:18:34.481Z,6.00
2018-04-27T03:21:01.937Z,6.30
2018-04-27T03:23:29.397Z,6.50
2018-04-27T03:25:57.517Z,5.90
2018-04-27T03:28:24.983Z,6.50
2018-04-27T03:30:52.444Z,6.57
2018-04-27T03:33:19.900Z,6.63
2018-04-27T03:35:47.397Z,6.90
2018-04-27T03:38:14.853Z,6.43
2018-04-27T03:40:42.321Z,6.10
2018-04-27T03:43:09.810Z,6.63
2018-04-27T03:45:37.261Z,6.30
2018-04-27T03:48:04.726Z,6.30
2018-04-27T03:50:32.177Z,6.57
2018-04-27T03:52:59.634Z,6.30
2018-04-27T03:55:27.078Z,6.60
2018-04-27T03:57:54.520Z,6.63
2018-04-27T04:00:33.762Z,6.63
2018-04-27T04:03:12.890Z,7.17
2018-04-27T04:05:40.399Z,7.00
2018-04-27T04:08:07.861Z,6.93
2018-04-27T04:10:35.330Z,6.47
2018-04-27T04:13:02.797Z,6.70
2018-04-27T04:15:30.241Z,6.40
2018-04-27T04:17:57.689Z,6.70
2018-04-27T04:20:25.165Z,6.17
2018-04-27T04:22:52.619Z,6.80
2018-04-27T04:25:20.114Z,6.70
2018-04-27T04:27:47.572Z,6.07
2018-04-27T04:30:15.109Z,6.30
2018-04-27T04:32:42.631Z,6.53
2018-04-27T04:35:10.092Z,7.47
2018-04-27T04:37:37.553Z,7.00
2018-04-27T04:40:05.033Z,7.30
2018-04-27T04:42:32.618Z,7.10
2018-04-27T04:45:00.130Z,7.40
2018-04-27T04:47:27.601Z,8.20
2018-04-27T04:49:55.176Z,8.10
2018-04-27T04:52:23.222Z,7.70
2018-04-27T04:54:50.775Z,8.33
2018-04-27T04:57:18.269Z,9.30
2018-04-27T04:59:45.721Z,9.20
2018-04-27T05:02:13.198Z,9.60
2018-04-27T05:04:40.658Z,8.90
2018-04-27T05:07:08.101Z,9.90
2018-04-27T05:09:35.576Z,10.10
2018-04-27T05:12:03.042Z,9.53
2018-04-27T05:14:30.546Z,9.57
2018-04-27T05:16:58.036Z,9.60
2018-04-27T05:19:25.481Z,9.13
2018-04-27T05:21:52.946Z,9.40
2018-04-27T05:24:20.515Z,9.77
2018-04-27T05:26:47.958Z,8.90
2018-04-27T05:29:15.435Z,9.07
2018-04-27T05:31:42.969Z,8.70
2018-04-27T05:34:10.447Z,9.17
2018-04-27T05:36:37.930Z,9.30
2018-04-27T05:39:06.323Z,8.37
2018-04-27T05:41:33.814Z,9.30
2018-04-27T05:44:01.294Z,9.50
2018-04-27T05:46:28.805Z,8.50
2018-04-27T05:48:56.396Z,9.60
2018-04-27T05:51:23.793Z,8.60
2018-04-27T05:53:51.248Z,8.50
2018-04-27T05:56:18.783Z,9.07
2018-04-27T05:58:46.270Z,8.73
2018-04-27T06:01:13.750Z,9.87
2018-04-27T06:03:53.001Z,8.90
2018-04-27T06:06:20.452Z,9.20
2018-04-27T06:08:47.901Z,9.30
2018-04-27T06:11:15.399Z,8.30
2018-04-27T06:13:42.860Z,8.77
2018-04-27T06:16:10.446Z,8.53
2018-04-27T06:18:37.879Z,9.10
2018-04-27T06:21:06.340Z,8.77
2018-04-27T06:23:33.816Z,8.50
2018-04-27T06:26:01.269Z,8.80
2018-04-27T06:28:28.777Z,9.40
2018-04-27T06:30:56.235Z,8.10
2018-04-27T06:33:23.722Z,7.83
2018-04-27T06:35:51.186Z,8.90
2018-04-27T06:38:18.643Z,8.77
2018-04-27T06:40:46.114Z,8.33
2018-04-27T06:43:13.610Z,8.53
2018-04-27T06:45:41.067Z,8.23
2018-04-27T06:48:08.564Z,8.60
2018-04-27T06:50:36.031Z,8.67
2018-04-27T06:53:03.487Z,7.90
2018-04-27T06:55:30.972Z,8.97
2018-04-27T06:57:58.445Z,6.80
2018-04-27T07:00:25.910Z,7.50
2018-04-27T07:02:53.387Z,6.97
2018-04-27T07:05:20.922Z,7.00
2018-04-27T07:07:48.359Z,7.10
2018-04-27T07:10:15.828Z,6.07
2018-04-27T07:12:43.357Z,7.73
2018-04-27T07:15:10.844Z,7.53
2018-04-27T07:17:38.278Z,7.00
2018-04-27T07:20:05.763Z,6.90
2018-04-27T07:22:33.295Z,6.30
2018-04-27T07:25:00.751Z,6.53
2018-04-27T07:27:28.238Z,6.30
2018-04-27T07:29:55.706Z,6.60
2018-04-27T07:32:23.177Z,5.47
2018-04-27T07:34:50.670Z,5.87
2018-04-27T07:37:18.166Z,6.60
2018-04-27T07:39:45.668Z,5.97
2018-04-27T07:42:13.231Z,5.53
2018-04-27T07:44:40.733Z,5.87
2018-04-27T07:47:08.211Z,5.23
2018-04-27T07:49:35.746Z,4.93
2018-04-27T07:52:03.231Z,5.23
2018-04-27T07:54:30.711Z,5.70
2018-04-27T07:56:58.194Z,7.13
2018-04-27T07:59:25.674Z,6.17
2018-04-27T08:01:53.248Z,7.37
2018-04-27T08:04:20.713Z,8.10
2018-04-27T08:06:48.237Z,8.40
2018-04-27T08:09:15.723Z,8.17
2018-04-27T08:11:43.239Z,7.63
2018-04-27T08:14:10.748Z,7.87
2018-04-27T08:16:39.126Z,6.97
2018-04-27T08:19:07.394Z,6.47
2018-04-27T08:21:34.888Z,6.83
2018-04-27T08:24:02.394Z,6.30
2018-04-27T08:26:29.952Z,6.13
2018-04-27T08:29:05.137Z,7.10
2018-04-27T08:31:32.684Z,7.17
2018-04-27T08:34:00.205Z,6.83
2018-04-27T08:36:27.676Z,7.10
2018-04-27T08:38:55.174Z,7.03
2018-04-27T08:41:22.649Z,7.20
2018-04-27T08:43:50.188Z,6.93
2018-04-27T08:46:17.626Z,5.13
2018-04-27T08:48:45.088Z,5.67
2018-04-27T08:51:12.591Z,4.93
2018-04-27T08:53:40.130Z,6.33
2018-04-27T08:56:07.655Z,6.43
2018-04-27T08:58:35.154Z,5.70
2018-04-27T09:01:02.651Z,5.40
2018-04-27T09:03:30.115Z,4.93
2018-04-27T09:05:57.579Z,4.23
2018-04-27T09:08:25.173Z,5.00
2018-04-27T09:10:52.695Z,4.40
2018-04-27T09:13:20.818Z,5.00
2018-04-27T09:15:49.362Z,5.10
2018-04-27T09:18:16.851Z,5.20
2018-04-27T09:20:44.322Z,5.30
2018-04-27T09:23:11.784Z,5.23
2018-04-27T09:25:39.445Z,4.53
2018-04-27T09:28:06.976Z,5.07
2018-04-27T09:30:34.438Z,5.20
2018-04-27T09:33:01.907Z,4.50
2018-04-27T09:35:29.365Z,5.17
2018-04-27T09:37:56.906Z,6.13
2018-04-27T09:40:24.355Z,4.60
2018-04-27T09:42:51.836Z,4.37
2018-04-27T09:45:19.338Z,4.53
2018-04-27T09:47:46.844Z,4.80
2018-04-27T09:50:14.433Z,4.93
2018-04-27T09:52:41.908Z,5.03
2018-04-27T09:55:09.359Z,4.00
2018-04-27T09:57:36.827Z,3.77
2018-04-27T10:00:04.366Z,4.07
2018-04-27T10:02:31.855Z,3.60
2018-04-27T10:04:59.344Z,3.80
2018-04-27T10:07:26.908Z,3.50
2018-04-27T10:09:54.402Z,3.20
2018-04-27T10:12:21.901Z,3.53
2018-04-27T10:14:49.380Z,3.23
2018-04-27T10:17:16.902Z,2.70
2018-04-27T10:19:44.375Z,2.80
2018-04-27T10:22:11.863Z,3.23
2018-04-27T10:24:39.366Z,3.07
2018-04-27T10:27:06.903Z,2.63
2018-04-27T10:29:34.420Z,2.60
2018-04-27T10:32:01.919Z,2.50
2018-04-27T10:34:29.458Z,2.67
2018-04-27T10:36:56.929Z,2.70
2018-04-27T10:39:24.500Z,1.90
2018-04-27T10:41:51.997Z,2.57
2018-04-27T10:44:19.500Z,2.40
2018-04-27T10:46:46.980Z,2.20
2018-04-27T10:49:14.549Z,2.37
2018-04-27T10:51:42.039Z,2.87
2018-04-27T10:54:09.666Z,2.10
2018-04-27T10:56:37.185Z,2.20
2018-04-27T10:59:04.662Z,3.13
2018-04-27T11:01:32.236Z,2.60
2018-04-27T11:03:59.753Z,2.60
2018-04-27T11:06:27.316Z,3.03
2018-04-27T11:08:54.815Z,2.30
2018-04-27T11:11:22.408Z,2.63
2018-04-27T11:13:49.978Z,2.47
2018-04-27T11:16:17.510Z,2.90
2018-04-27T11:18:45.494Z,2.70
2018-04-27T11:21:13.315Z,2.20
2018-04-27T11:23:41.566Z,2.47
2018-04-27T11:26:09.093Z,2.10
2018-04-27T11:28:36.581Z,2.20
2018-04-27T11:31:04.050Z,2.60
2018-04-27T11:33:31.547Z,2.20
2018-04-27T11:35:59.102Z,1.70
2018-04-27T11:38:26.594Z,2.07
2018-04-27T11:40:55.444Z,1.90
2018-04-27T11:43:22.921Z,2.30
2018-04-27T11:45:51.406Z,1.97
2018-04-27T11:48:18.906Z,2.23
2018-04-27T11:50:46.390Z,2.20
2018-04-27T11:53:13.888Z,1.70
2018-04-27T11:55:41.382Z,1.53
2018-04-27T11:58:08.995Z,1.93
2018-04-27T12:00:36.560Z,2.07
2018-04-27T12:03:04.050Z,1.57
2018-04-27T12:05:31.541Z,2.07
2018-04-27T12:07:59.075Z,1.90
2018-04-27T12:10:26.638Z,2.30
2018-04-27T12:12:54.131Z,1.90
2018-04-27T12:15:21.633Z,1.67
2018-04-27T12:17:49.090Z,2.20
2018-04-27T12:20:16.584Z,2.00
2018-04-27T12:22:44.086Z,2.10
2018-04-27T12:25:11.566Z,1.77
2018-04-27T12:27:39.060Z,2.00
2018-04-27T12:30:06.603Z,1.33
2018-04-27T12:32:34.081Z,1.83
2018-04-27T12:35:01.581Z,2.00
2018-04-27T12:37:29.078Z,1.60
2018-04-27T12:39:56.575Z,1.80
2018-04-27T12:42:24.085Z,1.90
2018-04-27T12:44:51.602Z,1.73
2018-04-27T12:47:19.146Z,1.70
2018-04-27T12:49:46.658Z,2.10
2018-04-27T12:52:14.164Z,2.50
2018-04-27T12:54:42.615Z,1.67
2018-04-27T12:57:10.120Z,2.00
2018-04-27T12:59:37.598Z,2.00
2018-04-27T13:02:05.075Z,2.40
2018-04-27T13:04:32.542Z,2.67
2018-04-27T13:07:00.043Z,2.40
2018-04-27T13:09:27.517Z,1.80
2018-04-27T13:11:55.039Z,2.00
2018-04-27T13:14:22.530Z,1.97
2018-04-27T13:16:50.067Z,2.53
2018-04-27T13:19:17.539Z,3.03
2018-04-27T13:21:44.999Z,2.30
2018-04-27T13:24:12.549Z,1.83
2018-04-27T13:26:40.071Z,2.07
2018-04-27T13:29:07.576Z,2.20
2018-04-27T13:31:35.084Z,1.97
2018-04-27T13:34:02.560Z,1.53
2018-04-27T13:36:30.028Z,1.90
2018-04-27T13:39:15.001Z,1.70
2018-04-27T13:41:43.850Z,1.90
2018-04-27T13:44:11.352Z,1.97
2018-04-27T13:46:38.869Z,2.17
2018-04-27T13:49:06.336Z,2.10
2018-04-27T13:51:33.841Z,1.50
2018-04-27T13:54:01.377Z,2.27
2018-04-27T13:56:28.919Z,1.73
2018-04-27T13:58:56.405Z,1.90
2018-04-27T14:01:23.917Z,1.80
2018-04-27T14:03:52.360Z,1.90
2018-04-27T14:06:19.847Z,1.90
2018-04-27T14:08:52.062Z,1.93
2018-04-27T14:11:19.679Z,1.77
2018-04-27T14:13:47.249Z,2.60
2018-04-27T14:16:14.763Z,2.50
2018-04-27T14:18:42.280Z,2.40
2018-04-27T14:21:09.773Z,2.33
2018-04-27T14:23:37.263Z,2.23
2018-04-27T14:26:04.747Z,1.77
2018-04-27T14:28:32.225Z,1.80
2018-04-27T14:30:59.687Z,1.80
2018-04-27T14:33:27.164Z,1.90
2018-04-27T14:35:54.652Z,1.60
2018-04-27T14:38:22.113Z,2.03
2018-04-27T14:40:49.621Z,2.07
2018-04-27T14:43:17.099Z,2.10
2018-04-27T14:45:44.591Z,1.70
2018-04-27T14:48:12.151Z,1.70
2018-04-27T14:50:41.308Z,2.00
2018-04-27T14:53:08.830Z,1.73
2018-04-27T14:55:36.437Z,1.60
2018-04-27T14:58:04.000Z,1.90
2018-04-27T15:00:31.557Z,2.30
2018-04-27T15:02:59.237Z,2.00
2018-04-27T15:05:26.733Z,1.83
2018-04-27T15:07:54.321Z,2.30
2018-04-27T15:10:22.185Z,3.27
2018-04-27T15:12:49.777Z,1.80
2018-04-27T15:15:17.478Z,2.13
2018-04-27T15:17:45.046Z,1.70
2018-04-27T15:20:12.576Z,2.20
2018-04-27T15:22:40.066Z,1.93
2018-04-27T15:25:07.593Z,2.10
2018-04-27T15:27:35.314Z,1.80
2018-04-27T15:30:02.830Z,2.10
2018-04-27T15:32:30.367Z,2.53
2018-04-27T15:34:57.884Z,1.97
2018-04-27T15:37:25.444Z,2.60
2018-04-27T15:39:52.999Z,2.10
2018-04-27T15:42:20.601Z,1.90
2018-04-27T15:44:48.124Z,1.60
2018-04-27T15:47:15.648Z,1.83
2018-04-27T15:49:43.219Z,2.03
2018-04-27T15:52:10.807Z,1.87
2018-04-27T15:54:38.347Z,2.43
2018-04-27T15:57:05.955Z,2.23
2018-04-27T15:59:33.518Z,1.90
2018-04-27T16:02:01.100Z,2.13
2018-04-27T16:04:28.730Z,2.00
2018-04-27T16:06:57.312Z,1.83
2018-04-27T16:09:25.107Z,2.13
2018-04-27T16:11:52.692Z,2.10
2018-04-27T16:14:20.254Z,2.00
2018-04-27T16:16:47.819Z,2.50
2018-04-27T16:19:15.336Z,2.40
2018-04-27T16:21:42.897Z,1.93
2018-04-27T16:24:10.459Z,2.40
2018-04-27T16:26:38.110Z,2.20
2018-04-27T16:29:05.710Z,1.70
2018-04-27T16:31:33.404Z,2.13
2018-04-27T16:34:01.012Z,2.17
2018-04-27T16:36:29.123Z,1.80
2018-04-27T16:38:56.655Z,1.70
2018-04-27T16:41:24.768Z,1.80
2018-04-27T16:43:52.450Z,1.70
2018-04-27T16:46:19.967Z,2.47
2018-04-27T16:48:47.528Z,2.00
2018-04-27T16:51:15.827Z,1.93
2018-04-27T16:53:43.335Z,2.17
2018-04-27T16:56:10.857Z,2.83
2018-04-27T16:58:38.372Z,2.10
2018-04-27T17:01:05.902Z,2.93
2018-04-27T17:03:33.471Z,2.17
2018-04-27T17:06:06.778Z,2.33
2018-04-27T17:08:34.366Z,2.70
2018-04-27T17:11:01.933Z,2.50
2018-04-27T17:13:29.493Z,2.30
2018-04-27T17:15:57.033Z,2.40
2018-04-27T17:18:25.774Z,2.20
2018-04-27T17:20:53.344Z,3.23
2018-04-27T17:23:20.853Z,2.10
2018-04-27T17:25:48.412Z,2.27
2018-04-27T17:28:15.989Z,2.83
2018-04-27T17:30:43.615Z,2.30
2018-04-27T17:33:11.241Z,2.70
2018-04-27T17:35:38.744Z,2.53
2018-04-27T17:38:06.306Z,2.70
2018-04-27T17:40:33.852Z,2.53
2018-04-27T17:43:01.470Z,2.63
2018-04-27T17:45:28.982Z,3.03
2018-04-27T17:47:56.538Z,2.70
2018-04-27T17:50:24.099Z,3.37
2018-04-27T17:52:51.635Z,3.20
2018-04-27T17:55:19.231Z,3.50
2018-04-27T17:57:46.716Z,3.10
2018-04-27T18:00:14.287Z,2.93
2018-04-27T18:02:41.799Z,3.03
2018-04-27T18:05:09.307Z,3.20
2018-04-27T18:07:36.804Z,3.37
2018-04-27T18:10:04.337Z,3.37
2018-04-27T18:12:31.944Z,3.40
2018-04-27T18:14:59.476Z,3.33
2018-04-27T18:17:27.047Z,3.60
2018-04-27T18:19:54.551Z,3.47
2018-04-27T18:22:22.110Z,6.63
2018-04-27T18:24:49.624Z,3.80
2018-04-27T18:27:17.166Z,4.00
2018-04-27T18:29:44.747Z,4.00
2018-04-27T18:32:12.240Z,3.97
2018-04-27T18:34:40.009Z,3.70
2018-04-27T18:37:07.570Z,4.70
2018-04-27T18:39:35.108Z,4.50
2018-04-27T18:42:02.639Z,4.20
2018-04-27T18:44:30.157Z,4.20
2018-04-27T18:46:57.816Z,4.00
2018-04-27T18:49:25.379Z,5.20
2018-04-27T18:51:52.955Z,4.87
2018-04-27T18:54:20.488Z,4.17
2018-04-27T18:56:48.877Z,4.27
2018-04-27T18:59:16.412Z,4.20
2018-04-27T19:01:43.911Z,3.90
2018-04-27T19:04:11.462Z,3.60
2018-04-27T19:06:39.032Z,4.43
2018-04-27T19:09:06.583Z,4.77
2018-04-27T19:11:34.188Z,5.00
2018-04-27T19:14:01.732Z,4.90
2018-04-27T19:16:29.286Z,4.47
2018-04-27T19:18:56.815Z,4.00
2018-04-27T19:21:24.400Z,4.60
2018-04-27T19:23:52.672Z,4.80
2018-04-27T19:26:21.188Z,4.93
2018-04-27T19:28:48.714Z,4.70
2018-04-27T19:31:16.230Z,4.73
2018-04-27T19:33:43.883Z,4.47
2018-04-27T19:36:11.424Z,5.00
2018-04-27T19:38:39.092Z,4.83
2018-04-27T19:41:06.564Z,4.97
2018-04-27T19:43:34.053Z,4.97
2018-04-27T19:46:01.594Z,4.57
2018-04-27T19:48:29.889Z,4.97
2018-04-27T19:50:57.493Z,4.80
2018-04-27T19:53:25.025Z,5.33
2018-04-27T19:55:52.555Z,5.33
2018-04-27T19:58:20.091Z,5.13
2018-04-27T20:00:47.603Z,5.50
2018-04-27T20:03:15.136Z,5.60
2018-04-27T20:05:44.505Z,5.13
2018-04-27T20:08:12.038Z,4.57
2018-04-27T20:10:42.589Z,4.67
2018-04-27T20:13:12.998Z,5.23
2018-04-27T20:15:41.422Z,5.70
2018-04-27T20:18:21.509Z,5.40
2018-04-27T20:20:49.113Z,5.53
2018-04-27T20:23:17.524Z,5.73
2018-04-27T20:25:47.938Z,4.77
2018-04-27T20:28:15.527Z,5.10
2018-04-27T20:30:43.106Z,5.63
2018-04-27T20:33:14.508Z,5.10
2018-04-27T20:35:42.161Z,4.70
2018-04-27T20:38:15.275Z,5.80
2018-04-27T20:40:42.884Z,5.83
2018-04-27T20:43:12.228Z,5.23
2018-04-27T20:45:39.759Z,5.03
2018-04-27T20:51:03.394Z,4.87
2018-04-27T20:53:31.722Z,6.67
2018-04-27T20:56:06.133Z,5.40
2018-04-27T20:58:33.679Z,5.43
2018-04-27T21:01:01.189Z,6.30
2018-04-27T21:03:28.748Z,4.90
2018-04-27T21:05:56.314Z,6.20
2018-04-27T21:08:23.893Z,4.90
2018-04-27T21:10:51.415Z,5.77
2018-04-27T21:13:19.138Z,5.17
2018-04-27T21:15:46.648Z,6.20
2018-04-27T21:18:16.072Z,5.13
2018-04-27T21:20:43.648Z,6.40
2018-04-27T21:23:11.359Z,5.33
2018-04-27T21:25:38.884Z,6.13
2018-04-27T21:28:06.407Z,6.30
2018-04-27T21:30:33.907Z,5.83
2018-04-27T21:33:04.415Z,5.30
2018-04-27T21:35:34.763Z,5.93
2018-04-27T21:38:08.990Z,6.03
2018-04-27T21:40:36.507Z,5.67
2018-04-27T21:43:04.048Z,6.43
2018-04-27T21:45:31.946Z,7.20
2018-04-27T21:47:59.474Z,5.70
2018-04-27T21:50:26.972Z,6.57
2018-04-27T21:52:54.575Z,6.57
2018-04-27T21:55:22.091Z,6.47
2018-04-27T21:58:09.246Z,7.33
2018-04-27T22:00:36.828Z,6.10
2018-04-27T22:03:10.276Z,6.20
2018-04-27T22:05:50.522Z,5.83
2018-04-27T22:08:21.402Z,5.97
2018-04-27T22:10:49.717Z,6.10
2018-04-27T22:13:18.966Z,7.00
2018-04-27T22:15:46.514Z,6.40
2018-04-27T22:18:13.990Z,6.97
2018-04-27T22:20:47.297Z,7.70
2018-04-27T22:23:15.405Z,6.37
2018-04-27T22:25:43.756Z,6.23
2018-04-27T22:28:11.354Z,6.47
2018-04-27T22:30:39.630Z,7.80
2018-04-27T22:33:15.026Z,6.10
2018-04-27T22:35:47.313Z,6.70
2018-04-27T22:41:19.578Z,6.37
2018-04-27T22:43:58.179Z,7.47
2018-04-27T22:46:25.683Z,6.17
2018-04-27T22:49:03.097Z,6.80
2018-04-27T22:51:35.529Z,7.40
2018-04-27T22:54:04.727Z,7.73
2018-04-27T22:56:47.562Z,6.83
2018-04-27T22:59:15.082Z,6.50
2018-04-27T23:01:42.607Z,6.60
2018-04-27T23:04:10.173Z,7.43
2018-04-27T23:06:37.702Z,7.50
2018-04-27T23:09:05.271Z,7.20
2018-04-27T23:11:32.786Z,7.57
2018-04-27T23:14:10.258Z,7.20
2018-04-27T23:16:37.819Z,6.80
2018-04-27T23:19:08.259Z,7.50
2018-04-27T23:21:38.255Z,7.50
2018-04-27T23:24:06.560Z,8.10
2018-04-27T23:26:34.144Z,7.73
2018-04-27T23:29:01.659Z,7.37
2018-04-27T23:31:29.228Z,8.50
2018-04-27T23:33:56.776Z,7.43
2018-04-27T23:36:24.325Z,7.17
2018-04-27T23:38:51.855Z,8.50
2018-04-27T23:41:19.381Z,8.17
2018-04-27T23:43:46.896Z,7.90
2018-04-27T23:46:14.420Z,8.10
2018-04-27T23:48:41.972Z,8.30
2018-04-27T23:51:09.485Z,8.23
2018-04-27T23:53:37.973Z,8.00
2018-04-27T23:56:07.660Z,8.40
2018-04-27T23:58:35.232Z,8.20
